Time;durP1;ratioP1;P1;durP2;ratioP2;P2;SDS_P1;SDS_P2;PMS_P1;PMS_P2;Temp;Humidity;BMP_temperature;BMP_pressure;BME280_temperature;BME280_humidity;BME280_pressure;Samples;Min_cycle;Max_cycle;Signal;HPM_P1;HPM_P2
2022/12/14 00:02:46;;;;;;;;;;;-5.60;99.90;;;;;;12373710;28;19975;-84
2022/12/14 00:08:49;;;;;;;;;;;-5.60;99.90;;;;;;12377239;28;19925;-85
2022/12/14 00:14:51;;;;;;;;;;;-5.60;99.90;;;;;;12369518;28;20374;-85
2022/12/14 00:20:53;;;;;;;;;;;-5.60;99.90;;;;;;12374232;28;19945;-85
2022/12/14 00:26:54;;;;;;;;;;;-5.70;99.90;;;;;;12373923;28;19947;-84
2022/12/14 00:32:56;;;;;;;;;;;-5.70;99.90;;;;;;12379128;28;19926;-85
2022/12/14 00:38:58;;;;;;;;;;;-5.70;99.90;;;;;;12390645;28;19949;-85
2022/12/14 00:45:01;;;;;;;;;;;-5.80;99.90;;;;;;12379757;28;19932;-85
2022/12/14 00:51:02;;;;;;;;;;;-5.80;99.90;;;;;;12378844;28;19926;-84
2022/12/14 00:57:04;;;;;;;;;;;-5.80;99.90;;;;;;12383497;28;19936;-85
2022/12/14 01:03:06;;;;;;;;;;;-5.90;99.90;;;;;;12380930;28;19926;-85
2022/12/14 01:09:08;;;;;;;;;;;-5.90;99.90;;;;;;12396243;28;20278;-85
2022/12/14 01:15:09;;;;;;;;;;;-6.00;99.90;;;;;;12377601;28;20266;-85
2022/12/14 01:21:15;;;;;;;;;;;-6.00;99.90;;;;;;12398368;28;19930;-84
2022/12/14 01:27:17;;;;;;;;;;;-6.00;99.90;;;;;;12373862;28;19937;-85
2022/12/14 01:33:19;;;;;;;;;;;-6.00;99.90;;;;;;12370875;28;19926;-84
2022/12/14 01:39:20;;;;;;;;;;;-6.10;99.90;;;;;;12389429;28;19926;-85
2022/12/14 01:45:22;;;;;;;;;;;-6.10;99.90;;;;;;12379191;28;19932;-84
2022/12/14 01:51:24;;;;;;;;;;;-6.10;99.90;;;;;;12410360;28;19941;-84
2022/12/14 01:57:29;;;;;;;;;;;-6.20;99.90;;;;;;12397271;28;20286;-84
2022/12/14 02:03:35;;;;;;;;;;;-5.90;99.90;;;;;;12372155;28;19932;-84
2022/12/14 02:09:39;;;;;;;;;;;-5.80;99.90;;;;;;12378108;28;19926;-84
2022/12/14 02:15:40;;;;;;;;;;;-5.90;99.90;;;;;;12376057;28;19977;-85
2022/12/14 02:21:48;;;;;;;;;;;-6.00;99.90;;;;;;12375316;28;20392;-85
2022/12/14 02:28:09;;;;;;;;;;;-6.10;99.90;;;;;;12380959;28;19930;-85
2022/12/14 02:34:30;;;;;;;;;;;-6.10;99.90;;;;;;12381684;28;19929;-85
2022/12/14 02:40:35;;;;;;;;;;;-6.00;99.90;;;;;;12398745;28;20481;-84
2022/12/14 02:46:54;;;;;;;;;;;-6.10;99.90;;;;;;12398835;28;19988;-84
2022/12/14 02:53:00;;;;;;;;;;;-6.10;99.90;;;;;;12300939;28;19927;-85
2022/12/14 02:59:03;;;;;;;;;;;-5.90;99.90;;;;;;12302554;28;19937;-85
2022/12/14 03:05:05;;;;;;;;;;;-5.80;99.90;;;;;;12294951;28;19935;-84
2022/12/14 03:11:09;;;;;;;;;;;-5.70;99.90;;;;;;12295882;28;19937;-84
2022/12/14 03:17:15;;;;;;;;;;;-5.90;99.90;;;;;;12293803;28;19933;-84
2022/12/14 03:23:23;;;;;;;;;;;-6.10;99.90;;;;;;12308605;28;19926;-84
2022/12/14 03:29:27;;;;;;;;;;;-6.10;99.90;;;;;;12293050;28;19930;-83
2022/12/14 03:35:52;;;;;;;;;;;-6.10;99.90;;;;;;12289998;28;20068;-83
2022/12/14 03:42:18;;;;;;;;;;;-6.00;99.90;;;;;;12280355;28;19927;-83
2022/12/14 03:48:27;;;;;;;;;;;-6.10;99.90;;;;;;12285301;28;20303;-83
2022/12/14 03:54:29;;;;;;;;;;;-6.20;99.90;;;;;;12385580;28;19930;-83
2022/12/14 04:00:33;;;;;;;;;;;-6.20;99.90;;;;;;12370770;28;19930;-83
2022/12/14 04:06:42;;;;;;;;;;;-6.20;99.90;;;;;;12376979;28;19929;-84
2022/12/14 04:19:07;;;;;;;;;;;-6.30;99.90;;;;;;12390436;28;20282;-83
2022/12/14 04:31:33;;;;;;;;;;;-6.20;99.90;;;;;;12398017;28;19937;-83
2022/12/14 04:37:36;;;;;;;;;;;-6.30;99.90;;;;;;12380517;28;19934;-83
2022/12/14 04:43:39;;;;;;;;;;;-6.30;99.90;;;;;;12393894;28;20285;-84
2022/12/14 04:50:04;;;;;;;;;;;-6.30;99.90;;;;;;12400514;28;19933;-83
2022/12/14 04:56:12;;;;;;;;;;;-6.40;99.90;;;;;;12382378;28;19937;-83
2022/12/14 05:02:37;;;;;;;;;;;-6.50;99.90;;;;;;12395459;28;20405;-83
2022/12/14 05:08:58;;;;;;;;;;;-6.50;99.90;;;;;;12380947;28;19968;-83
2022/12/14 05:15:12;;;;;;;;;;;-6.60;99.90;;;;;;12389061;28;20422;-83
2022/12/14 05:27:34;;;;;;;;;;;-6.60;99.90;;;;;;12396066;28;20158;-83
2022/12/14 05:33:36;;;;;;;;;;;-6.60;99.90;;;;;;12382301;28;19926;-83
2022/12/14 05:39:38;;;;;;;;;;;-6.70;99.90;;;;;;12391677;28;19941;-83
2022/12/14 05:45:39;;;;;;;;;;;-6.70;99.90;;;;;;12378890;28;19930;-83
2022/12/14 05:51:41;;;;;;;;;;;-6.70;99.90;;;;;;12379652;28;19992;-83
2022/12/14 05:57:43;;;;;;;;;;;-6.60;99.90;;;;;;12396305;28;19929;-84
2022/12/14 06:03:44;;;;;;;;;;;-6.70;99.90;;;;;;12380461;28;19929;-84
2022/12/14 06:09:46;;;;;;;;;;;-6.80;99.90;;;;;;12371869;28;19948;-84
2022/12/14 06:15:48;;;;;;;;;;;-6.80;99.90;;;;;;12371248;28;19926;-83
2022/12/14 06:21:50;;;;;;;;;;;-6.80;99.90;;;;;;12381133;28;19933;-84
2022/12/14 06:27:53;;;;;;;;;;;-6.90;99.90;;;;;;12387237;28;19926;-83
2022/12/14 06:33:57;;;;;;;;;;;-6.90;99.90;;;;;;12389731;28;20155;-84
2022/12/14 06:39:58;;;;;;;;;;;-6.90;99.90;;;;;;12380777;28;19929;-84
2022/12/14 06:46:00;;;;;;;;;;;-6.90;99.90;;;;;;12371339;28;20298;-83
2022/12/14 06:52:02;;;;;;;;;;;-7.00;99.90;;;;;;12397891;28;19930;-83
2022/12/14 06:58:03;;;;;;;;;;;-7.10;99.90;;;;;;12383289;28;20408;-83
2022/12/14 07:04:06;;;;;;;;;;;-7.10;99.90;;;;;;12381010;28;19933;-84
2022/12/14 07:10:08;;;;;;;;;;;-7.10;99.90;;;;;;12381151;28;20405;-83
2022/12/14 07:16:12;;;;;;;;;;;-7.00;99.90;;;;;;12387600;28;19925;-83
2022/12/14 07:22:14;;;;;;;;;;;-6.90;99.90;;;;;;12389720;28;20045;-84
2022/12/14 07:28:16;;;;;;;;;;;-7.00;99.90;;;;;;12372696;28;20382;-84
2022/12/14 07:34:17;;;;;;;;;;;-7.00;99.90;;;;;;12400457;28;20309;-84
2022/12/14 07:40:20;;;;;;;;;;;-6.90;99.90;;;;;;12368317;28;20020;-84
2022/12/14 07:46:23;;;;;;;;;;;-6.70;99.90;;;;;;12369730;28;19975;-84
2022/12/14 07:52:25;;;;;;;;;;;-6.70;99.90;;;;;;12378562;28;20314;-84
2022/12/14 07:58:26;;;;;;;;;;;-6.60;99.90;;;;;;12373860;28;20294;-84
2022/12/14 08:04:28;;;;;;;;;;;-6.50;99.90;;;;;;12396612;28;19926;-84
2022/12/14 08:10:30;;;;;;;;;;;-6.50;99.90;;;;;;12380036;28;20015;-84
2022/12/14 08:16:39;;;;;;;;;;;-6.40;99.90;;;;;;12389290;28;19926;-84
2022/12/14 08:22:41;;;;;;;;;;;-6.30;99.90;;;;;;12371469;28;20386;-84
2022/12/14 08:28:42;;;;;;;;;;;-6.30;99.90;;;;;;12389132;28;19945;-84
2022/12/14 08:34:44;;;;;;;;;;;-6.30;99.90;;;;;;12388582;28;19929;-84
2022/12/14 08:40:46;;;;;;;;;;;-6.20;99.90;;;;;;12380837;28;20021;-84
2022/12/14 08:46:47;;;;;;;;;;;-6.10;99.90;;;;;;12374880;28;19953;-84
2022/12/14 08:52:49;;;;;;;;;;;-6.00;99.90;;;;;;12312367;28;19948;-84
2022/12/14 08:58:51;;;;;;;;;;;-6.00;99.90;;;;;;12296319;28;19926;-84
2022/12/14 09:04:53;;;;;;;;;;;-6.00;99.90;;;;;;12295237;28;19931;-84
2022/12/14 09:10:55;;;;;;;;;;;-5.90;99.90;;;;;;12297608;28;19938;-84
2022/12/14 09:16:57;;;;;;;;;;;-5.90;99.90;;;;;;12311662;28;20017;-84
2022/12/14 09:22:59;;;;;;;;;;;-5.90;99.90;;;;;;12295638;28;19949;-84
2022/12/14 09:29:01;;;;;;;;;;;-5.90;99.90;;;;;;12299377;28;19930;-84
2022/12/14 09:35:02;;;;;;;;;;;-5.90;99.90;;;;;;12296696;28;19934;-84
2022/12/14 09:41:05;;;;;;;;;;;-5.90;99.90;;;;;;12294444;28;19927;-83
2022/12/14 09:47:17;;;;;;;;;;;-5.80;99.90;;;;;;12306069;28;19982;-83
2022/12/14 09:53:19;;;;;;;;;;;-6.00;99.90;;;;;;12291931;28;19926;-84
2022/12/14 09:59:23;;;;;;;;;;;-5.90;99.90;;;;;;12298136;28;19927;-84
2022/12/14 10:05:24;;;;;;;;;;;-5.80;99.90;;;;;;12282115;28;19946;-84
2022/12/14 10:11:43;;;;;;;;;;;-5.60;99.90;;;;;;12289114;28;19927;-84
2022/12/14 10:17:54;;;;;;;;;;;-5.30;99.90;;;;;;12287866;28;19934;-84
2022/12/14 10:24:03;;;;;;;;;;;-4.90;99.90;;;;;;12278418;28;19998;-84
2022/12/14 10:30:07;;;;;;;;;;;-4.30;99.90;;;;;;12295515;28;19931;-84
2022/12/14 10:36:26;;;;;;;;;;;-3.80;99.90;;;;;;12297676;28;19926;-84
2022/12/14 10:42:35;;;;;;;;;;;-3.50;99.90;;;;;;12293796;28;19926;-84
2022/12/14 10:48:48;;;;;;;;;;;-3.30;99.90;;;;;;12295560;28;20375;-84
2022/12/14 10:54:52;;;;;;;;;;;-2.40;99.90;;;;;;12390582;28;19937;-84
2022/12/14 11:00:54;;;;;;;;;;;-1.80;99.90;;;;;;12390556;28;19926;-84
2022/12/14 11:06:57;;;;;;;;;;;-1.60;99.90;;;;;;12389781;28;20020;-84
2022/12/14 11:13:04;;;;;;;;;;;-1.60;99.90;;;;;;12385047;28;19926;-83
2022/12/14 11:19:21;;;;;;;;;;;-1.40;99.90;;;;;;12370285;28;19925;-84
2022/12/14 11:25:26;;;;;;;;;;;-1.20;99.90;;;;;;12390925;28;19926;-84
2022/12/14 11:31:34;;;;;;;;;;;-0.80;99.90;;;;;;12383915;28;19929;-84
2022/12/14 11:37:36;;;;;;;;;;;-0.50;99.90;;;;;;12366890;28;19926;-84
2022/12/14 11:43:38;;;;;;;;;;;-0.50;99.90;;;;;;12381083;28;19956;-84
2022/12/14 11:49:39;;;;;;;;;;;-0.60;99.90;;;;;;12377154;28;19926;-83
2022/12/14 11:55:44;;;;;;;;;;;-0.40;99.90;;;;;;12368528;28;19925;-83
2022/12/14 12:01:46;;;;;;;;;;;-0.20;99.90;;;;;;12376287;28;19930;-83
2022/12/14 12:07:47;;;;;;;;;;;-0.30;99.90;;;;;;12370755;28;20392;-83
2022/12/14 12:13:51;;;;;;;;;;;-0.20;99.90;;;;;;12376935;28;19926;-82
2022/12/14 12:19:54;;;;;;;;;;;-0.40;99.90;;;;;;12369652;28;20290;-83
2022/12/14 12:25:57;;;;;;;;;;;-0.30;99.90;;;;;;12370173;28;19926;-83
2022/12/14 12:32:25;;;;;;;;;;;-0.40;99.90;;;;;;12390761;28;19925;-83
2022/12/14 12:38:46;;;;;;;;;;;-0.60;99.90;;;;;;12380797;28;19926;-83
2022/12/14 12:44:59;;;;;;;;;;;-0.70;99.90;;;;;;12389300;28;19926;-83
2022/12/14 12:51:04;;;;;;;;;;;-0.70;99.90;;;;;;12378123;28;19926;-83
2022/12/14 12:57:07;;;;;;;;;;;-0.80;99.90;;;;;;12376075;28;19933;-83
2022/12/14 13:03:12;;;;;;;;;;;-0.90;99.90;;;;;;12393499;28;19926;-83
2022/12/14 13:09:33;;;;;;;;;;;-0.80;99.90;;;;;;12380797;28;19926;-83
2022/12/14 13:15:38;;;;;;;;;;;-0.70;99.90;;;;;;12377745;28;20402;-83
2022/12/14 13:21:43;;;;;;;;;;;-0.60;99.90;;;;;;12382868;28;19967;-83
2022/12/14 13:28:01;;;;;;;;;;;-0.70;99.90;;;;;;12380089;28;20386;-83
2022/12/14 13:34:09;;;;;;;;;;;-1.00;99.90;;;;;;12380692;28;19926;-83
2022/12/14 13:40:20;;;;;;;;;;;-1.10;99.90;;;;;;12373745;28;19925;-83
2022/12/14 13:46:23;;;;;;;;;;;-1.20;99.90;;;;;;12376950;28;19926;-83
2022/12/14 13:52:30;;;;;;;;;;;-1.30;99.90;;;;;;12387863;28;19984;-83
2022/12/14 13:58:39;;;;;;;;;;;-1.40;99.90;;;;;;12381705;28;19941;-84
2022/12/14 14:04:42;;;;;;;;;;;-1.40;99.90;;;;;;12389221;28;19949;-83
2022/12/14 14:10:43;;;;;;;;;;;-1.50;99.90;;;;;;12365581;28;20488;-83
2022/12/14 14:16:50;;;;;;;;;;;-1.60;99.90;;;;;;12379779;28;19934;-83
2022/12/14 14:23:10;;;;;;;;;;;-1.70;99.90;;;;;;12367753;28;19930;-83
2022/12/14 14:29:12;;;;;;;;;;;-1.80;99.90;;;;;;12382895;28;20397;-84
2022/12/14 14:35:23;;;;;;;;;;;-1.90;99.90;;;;;;12388642;28;19925;-83
2022/12/14 14:41:39;;;;;;;;;;;-2.00;99.90;;;;;;12374037;28;20071;-83
2022/12/14 14:47:41;;;;;;;;;;;-2.00;99.90;;;;;;12370288;28;19926;-84
2022/12/14 14:53:43;;;;;;;;;;;-2.20;99.90;;;;;;12370885;28;19987;-84
2022/12/14 14:59:45;;;;;;;;;;;-2.40;99.90;;;;;;12388375;28;19930;-84
2022/12/14 15:05:52;;;;;;;;;;;-2.60;99.90;;;;;;12374174;28;20387;-84
2022/12/14 15:11:55;;;;;;;;;;;-2.80;99.90;;;;;;12376417;28;19937;-84
2022/12/14 15:18:19;;;;;;;;;;;-3.00;99.90;;;;;;12382088;28;19932;-84
2022/12/14 15:24:21;;;;;;;;;;;-3.00;99.90;;;;;;12375384;28;19949;-83
2022/12/14 15:30:26;;;;;;;;;;;-3.20;99.90;;;;;;12372986;28;19945;-84
2022/12/14 15:36:32;;;;;;;;;;;-3.40;99.90;;;;;;12392229;28;19929;-84
2022/12/14 15:42:43;;;;;;;;;;;-3.70;99.90;;;;;;12389626;28;19933;-84
2022/12/14 15:48:44;;;;;;;;;;;-3.70;99.90;;;;;;12377770;28;19930;-84
2022/12/14 15:54:46;;;;;;;;;;;-3.80;99.90;;;;;;12372153;28;19934;-83
2022/12/14 16:00:50;;;;;;;;;;;-3.90;99.90;;;;;;12383766;28;19930;-83
2022/12/14 16:06:55;;;;;;;;;;;-4.10;99.90;;;;;;12369433;28;20432;-84
2022/12/14 16:13:00;;;;;;;;;;;-4.20;99.90;;;;;;12379798;28;20008;-84
2022/12/14 16:19:05;;;;;;;;;;;-4.20;99.90;;;;;;12370180;28;19933;-83
2022/12/14 16:25:27;;;;;;;;;;;-4.00;99.90;;;;;;12387969;28;19930;-84
2022/12/14 16:31:29;;;;;;;;;;;-4.40;99.90;;;;;;12385044;28;20298;-84
2022/12/14 16:37:31;;;;;;;;;;;-4.50;99.90;;;;;;12395473;28;19996;-84
2022/12/14 16:43:36;;;;;;;;;;;-4.60;99.90;;;;;;12395048;28;19927;-84
2022/12/14 16:49:39;;;;;;;;;;;-4.60;99.90;;;;;;12398103;28;20048;-84
2022/12/14 16:55:59;;;;;;;;;;;-4.60;99.90;;;;;;12381149;28;19932;-84
2022/12/14 17:02:01;;;;;;;;;;;-4.70;99.90;;;;;;12392414;28;19926;-84
2022/12/14 17:08:04;;;;;;;;;;;-4.60;99.90;;;;;;12380922;28;19934;-84
2022/12/14 17:14:06;;;;;;;;;;;-4.60;99.90;;;;;;12407043;28;19926;-84
2022/12/14 17:20:16;;;;;;;;;;;-4.30;99.90;;;;;;12398928;28;20115;-83
2022/12/14 17:26:25;;;;;;;;;;;-4.20;99.90;;;;;;12393998;28;19926;-84
2022/12/14 17:32:29;;;;;;;;;;;-4.10;99.90;;;;;;12370185;28;19953;-84
2022/12/14 17:38:31;;;;;;;;;;;-4.10;99.90;;;;;;12368089;28;19926;-84
2022/12/14 17:44:33;;;;;;;;;;;-4.00;99.90;;;;;;12388512;28;19937;-84
2022/12/14 17:50:35;;;;;;;;;;;-4.00;99.90;;;;;;12379889;28;19932;-84
2022/12/14 17:56:36;;;;;;;;;;;-3.90;99.90;;;;;;12389653;28;19932;-83
2022/12/14 18:02:38;;;;;;;;;;;-3.90;99.90;;;;;;12390699;28;19941;-84
2022/12/14 18:08:40;;;;;;;;;;;-3.90;99.90;;;;;;12400002;28;19937;-84
2022/12/14 18:14:42;;;;;;;;;;;-3.90;99.90;;;;;;12400688;28;19968;-84
2022/12/14 18:20:47;;;;;;;;;;;-3.90;99.90;;;;;;12388898;28;19925;-84
2022/12/14 18:26:50;;;;;;;;;;;-4.00;99.90;;;;;;12377132;28;19926;-84
2022/12/14 18:32:51;;;;;;;;;;;-3.90;99.90;;;;;;12376388;28;19929;-83
2022/12/14 18:38:53;;;;;;;;;;;-3.90;99.90;;;;;;12387334;28;19925;-83
2022/12/14 18:44:55;;;;;;;;;;;-3.90;99.90;;;;;;12374093;28;19929;-84
2022/12/14 18:50:56;;;;;;;;;;;-3.90;99.90;;;;;;12392423;28;19933;-83
2022/12/14 18:56:58;;;;;;;;;;;-3.90;99.90;;;;;;12388695;28;19930;-83
2022/12/14 19:03:01;;;;;;;;;;;-3.90;99.90;;;;;;12384172;28;19937;-84
2022/12/14 19:09:03;;;;;;;;;;;-3.80;99.90;;;;;;12395852;28;20008;-83
2022/12/14 19:15:05;;;;;;;;;;;-3.90;99.90;;;;;;12377655;28;19949;-83
2022/12/14 19:21:07;;;;;;;;;;;-3.90;99.90;;;;;;12372465;28;20060;-84
2022/12/14 19:27:08;;;;;;;;;;;-4.00;99.90;;;;;;12372477;28;20373;-84
2022/12/14 19:33:10;;;;;;;;;;;-4.20;99.90;;;;;;12375800;28;19936;-84
2022/12/14 19:39:12;;;;;;;;;;;-4.30;99.90;;;;;;12370389;28;19926;-84
2022/12/14 19:45:14;;;;;;;;;;;-4.40;99.90;;;;;;12379378;28;19933;-84
2022/12/14 19:51:16;;;;;;;;;;;-4.40;99.90;;;;;;12386517;28;19930;-84
2022/12/14 19:57:18;;;;;;;;;;;-4.50;99.90;;;;;;12396013;28;20396;-84
2022/12/14 20:03:20;;;;;;;;;;;-4.50;99.90;;;;;;12396300;28;19975;-84
2022/12/14 20:09:22;;;;;;;;;;;-4.50;99.90;;;;;;12370775;28;19933;-83
2022/12/14 20:15:24;;;;;;;;;;;-4.50;99.90;;;;;;12391476;28;19949;-83
2022/12/14 20:21:28;;;;;;;;;;;-4.50;99.90;;;;;;12391328;28;19925;-83
2022/12/14 20:27:29;;;;;;;;;;;-4.50;99.90;;;;;;12397200;28;19934;-84
2022/12/14 20:33:38;;;;;;;;;;;-4.40;99.90;;;;;;12360949;28;19926;-84
2022/12/14 20:39:40;;;;;;;;;;;-4.60;99.90;;;;;;12367971;28;19936;-84
2022/12/14 20:45:45;;;;;;;;;;;-4.60;99.90;;;;;;12392118;28;20388;-83
2022/12/14 20:51:47;;;;;;;;;;;-4.60;99.90;;;;;;12389874;28;19930;-84
2022/12/14 20:57:48;;;;;;;;;;;-4.70;99.90;;;;;;12391929;28;19957;-84
2022/12/14 21:03:50;;;;;;;;;;;-4.80;99.90;;;;;;12391029;28;19925;-84
2022/12/14 21:09:52;;;;;;;;;;;-4.90;99.90;;;;;;12395672;28;19925;-84
2022/12/14 21:15:54;;;;;;;;;;;-5.10;99.90;;;;;;12405652;28;20309;-84
2022/12/14 21:21:55;;;;;;;;;;;-5.20;99.90;;;;;;12394686;28;20019;-83
2022/12/14 21:27:57;;;;;;;;;;;-5.20;99.90;;;;;;12404035;28;19926;-84
2022/12/14 21:33:59;;;;;;;;;;;-5.40;99.90;;;;;;12408402;28;19933;-83
2022/12/14 21:40:02;;;;;;;;;;;-5.30;99.90;;;;;;12379928;28;19933;-83
2022/12/14 21:46:04;;;;;;;;;;;-5.00;99.90;;;;;;12403842;28;20345;-84
2022/12/14 21:52:06;;;;;;;;;;;-5.00;99.90;;;;;;12396679;28;20398;-84
2022/12/14 21:58:17;;;;;;;;;;;-5.00;99.90;;;;;;12381355;28;20255;-83
2022/12/14 22:04:19;;;;;;;;;;;-5.00;99.90;;;;;;12377880;28;20004;-83
2022/12/14 22:10:22;;;;;;;;;;;-5.00;99.90;;;;;;12404487;28;21263;-83
2022/12/14 22:16:25;;;;;;;;;;;-5.10;99.90;;;;;;12390127;28;19926;-84
2022/12/14 22:22:27;;;;;;;;;;;-5.10;99.90;;;;;;12370159;28;19933;-84
2022/12/14 22:28:29;;;;;;;;;;;-5.20;99.90;;;;;;12398915;28;20001;-83
2022/12/14 22:34:30;;;;;;;;;;;-5.30;99.90;;;;;;12394371;28;19926;-84
2022/12/14 22:40:32;;;;;;;;;;;-5.30;99.90;;;;;;12399373;28;20285;-83
2022/12/14 22:46:34;;;;;;;;;;;-5.20;99.90;;;;;;12392561;28;19926;-83
2022/12/14 22:52:36;;;;;;;;;;;-5.10;99.90;;;;;;12383315;28;20382;-84
2022/12/14 22:58:39;;;;;;;;;;;-5.20;99.90;;;;;;12394005;28;19930;-83
2022/12/14 23:04:41;;;;;;;;;;;-5.30;99.90;;;;;;12364569;28;19930;-84
